Latest Weather Observations for Dalby

IDQ60801

Issued at 11:12 pm EST Monday 18 June 2018 (issued every 10 minutes, with the page automatically refreshed every 10 minutes)

About weather observations | Map of weather stations | Latest weather observations for QLD | Other Formats
Station Details ID: 041522 Name: DALBY AIRPORT Lat: -27.16 Lon: 151.26 Height: 343.9 m
Data from the previous 72 hours. | See also: Recent months at Dalby
Date/Time
EST
Temp
°C
App
Temp
°C
Dew
Point
°C
Rel
Hum
%
Delta-T
°C
Wind Press
QNH
hPa
Press
MSL
hPa
Rain since
9am
mm
Dir  Spd
km/h
Gust
km/h
Spd
kts
Gust
kts
18/11:00pm 3.5 -0.8 -1.3 71 1.8 W 11 15 6 8 1021.8 1021.6 0.0
18/10:30pm 3.4 -1.0 -2.5 65 2.1 WNW 11 11 6 6 1021.7 1021.5 0.0
18/10:00pm 2.7 0.3 -3.4 64 2.1 CALM 0 0 0 0 1021.8 1021.6 0.0
18/09:30pm 3.4 -0.4 -4.1 58 2.6 W 7 7 4 4 1021.8 1021.6 0.0
18/09:00pm 5.6 1.5 -2.7 55 3.0 W 9 11 5 6 1021.4 1021.2 0.0
18/08:30pm 5.0 1.4 -1.9 61 2.6 W 7 9 4 5 1021.3 1021.1 0.0
18/08:00pm 6.3 1.7 -1.1 59 2.8 W 13 15 7 8 1021.3 1021.1 0.0
18/07:30pm 8.4 4.2 -0.6 53 3.6 WSW 11 13 6 7 1021.1 1020.9 0.0
18/07:00pm 9.3 4.8 -0.3 51 3.9 SW 13 15 7 8 1021.2 1021.0 0.0
18/06:30pm 9.8 5.3 -0.1 50 4.0 SW 13 19 7 10 1020.7 1020.6 0.0
18/06:00pm 10.5 6.0 -0.3 47 4.4 SW 13 17 7 9 1020.3 1020.2 0.0
18/05:30pm 12.1 5.5 -0.1 43 5.1 WSW 24 32 13 17 1019.6 1019.4 0.0
18/05:00pm 13.0 6.5 0.1 41 5.4 WSW 24 33 13 18 1019.3 1019.1 0.0
18/04:30pm 13.8 6.5 -0.3 38 6.0 SW 28 37 15 20 1018.9 1018.7 0.0
18/04:00pm 14.4 6.3 -0.5 36 6.3 SW 32 39 17 21 1018.6 1018.4 0.0
18/03:30pm 14.6 7.6 -0.3 36 6.4 SW 26 35 14 19 1018.5 1018.3 0.0
18/03:00pm 14.6 6.9 -0.3 36 6.3 SW 30 43 16 23 1018.5 1018.3 0.0
18/02:30pm 14.9 6.5 -0.8 34 6.6 SW 33 44 18 24 1018.6 1018.4 0.0
18/02:00pm 13.8 6.0 -1.0 36 6.2 SW 30 43 16 23 1018.8 1018.6 0.0
18/01:30pm 15.3 8.0 0.3 36 6.5 WSW 28 43 15 23 1019.1 1018.9 0.0
18/01:00pm 14.8 7.1 -0.1 36 6.4 SW 30 43 16 23 1019.3 1019.1 0.0
18/12:30pm 14.3 6.5 -0.5 36 6.3 WSW 30 41 16 22 1019.6 1019.4 0.0
18/12:00pm 14.3 6.2 -0.5 36 6.2 WSW 32 48 17 26 1020.1 1020.0 0.0
18/11:57am 13.6 6.2 -0.8 37 6.0 WSW 28 48 15 26 1020.0 1019.9 0.0
18/11:30am 13.5 5.7 -0.9 37 6.0 WSW 30 39 16 21 1020.5 1020.4 0.0
18/11:00am 13.0 4.7 -0.6 39 5.7 WSW 33 44 18 24 1020.8 1020.7 0.0
18/10:30am 12.4 4.6 -1.1 39 5.5 WSW 30 41 16 22 1021.1 1020.9 0.0
18/10:00am 11.4 4.8 -0.7 43 4.9 WSW 24 35 13 19 1021.5 1021.3 0.0
18/09:30am 10.2 3.5 -0.9 46 4.5 SW 24 32 13 17 1021.6 1021.4 0.0
18/09:00am 8.6 2.7 -0.7 52 3.7 WSW 20 28 11 15 1021.7 1021.5 0.0
18/08:30am 6.8 0.8 -1.6 55 3.2 WSW 20 26 11 14 1021.9 1021.7 0.0
18/08:00am 4.8 -0.4 -2.5 59 2.6 W 15 20 8 11 1021.8 1021.6 0.0
18/07:30am 1.5 -3.0 -3.2 71 1.7 NW 11 13 6 7 1021.8 1021.6 0.0
18/07:00am -1.7 -6.5 -6.1 72 1.3 NW 11 13 6 7 1021.4 1021.2 0.0
18/06:30am -1.7 -6.8 -5.4 76 1.1 NW 13 15 7 8 1021.3 1021.1 0.0
18/06:00am -1.7 -6.4 -5.4 76 1.1 WNW 11 13 6 7 1021.2 1021.0 0.0
18/05:30am -1.8 -7.0 -6.7 69 1.4 NW 13 15 7 8 1021.1 1020.9 0.0
18/05:00am -1.8 -6.3 -7.3 66 1.6 NNW 9 11 5 6 1020.8 1020.7 0.0
18/04:30am -1.2 -5.3 -6.9 65 1.7 NNW 7 9 4 5 1020.6 1020.5 0.0
18/04:00am -1.1 -5.6 -7.0 64 1.7 NW 9 11 5 6 1021.1 1020.9 0.0
18/03:30am -1.4 -5.9 -6.5 68 1.5 NW 9 13 5 7 1021.2 1021.0 0.0
18/03:00am -1.8 -6.3 -7.3 66 1.6 NW 9 13 5 7 1021.4 1021.2 0.0
18/02:30am -1.1 -6.0 -7.6 61 1.9 NNW 11 13 6 7 1021.4 1021.2 0.0
18/02:00am -0.6 -5.1 -7.0 62 1.9 NW 9 11 5 6 1021.6 1021.4 0.0
18/01:30am 0.1 -4.4 -7.2 58 2.2 NNW 9 11 5 6 1021.7 1021.5 0.0
18/01:00am 0.8 -3.7 -6.5 58 2.3 WNW 9 9 5 5 1021.8 1021.6 0.0
18/12:30am 2.2 -2.1 -5.0 59 2.5 WSW 9 11 5 6 1021.7 1021.5 0.0
18/12:00am 3.0 -1.7 -4.7 57 2.6 W 11 13 6 7 1021.8 1021.6 0.0
 
Date/Time
EST
Temp
°C
App
Temp
°C
Dew
Point
°C
Rel
Hum
%
Delta-T
°C
Wind Press
QNH
hPa
Press
MSL
hPa
Rain since
9am
mm
Dir  Spd
km/h
Gust
km/h
Spd
kts
Gust
kts
17/11:30pm 3.0 -1.7 -4.7 57 2.6 W 11 13 6 7 1021.7 1021.5 0.0
17/11:00pm 3.3 -1.4 -4.6 56 2.7 W 11 13 6 7 1021.9 1021.7 0.0
17/10:30pm 4.3 -0.6 -3.7 56 2.8 W 13 13 7 7 1021.8 1021.6 0.0
17/10:00pm 2.9 -2.2 -5.0 56 2.6 W 13 13 7 7 1021.8 1021.6 0.0
17/09:30pm 3.3 -2.2 -5.6 52 2.9 WNW 15 15 8 8 1021.6 1021.4 0.0
17/09:00pm 3.7 -1.8 -5.5 51 3.0 W 15 17 8 9 1021.3 1021.1 0.0
17/08:30pm 3.9 -0.5 -6.1 48 3.3 WNW 9 11 5 6 1021.3 1021.1 0.0
17/08:00pm 5.2 0.4 -5.7 45 3.7 W 11 13 6 7 1021.2 1021.0 0.0
17/07:30pm 6.4 0.8 -5.9 41 4.2 W 15 17 8 9 1021.2 1021.0 0.0
17/07:00pm 7.7 2.1 -6.0 37 4.7 W 15 17 8 9 1020.8 1020.7 0.0
17/06:30pm 9.7 3.8 -5.4 34 5.4 WSW 17 22 9 12 1020.4 1020.3 0.0
17/06:00pm 10.6 4.7 -5.4 32 5.8 W 17 19 9 10 1019.9 1019.7 0.0
17/05:30pm 12.6 6.2 -4.9 29 6.6 WSW 20 28 11 15 1019.5 1019.3 0.0
17/05:00pm 13.5 5.9 -5.1 27 7.0 WSW 26 35 14 19 1019.1 1018.9 0.0
17/04:30pm 14.7 6.3 -5.6 24 7.7 WSW 30 39 16 21 1018.8 1018.6 0.0
17/04:00pm 15.5 7.5 -6.1 22 8.2 W 28 39 15 21 1018.5 1018.3 0.0
17/03:30pm 15.7 7.7 -5.9 22 8.2 WSW 28 43 15 23 1018.5 1018.3 0.0
17/03:00pm 16.1 7.1 -6.2 21 8.5 WSW 33 44 18 24 1018.4 1018.2 0.0
17/02:30pm 16.8 7.5 -5.0 22 8.6 W 35 50 19 27 1018.3 1018.1 0.0
17/02:00pm 16.7 7.5 -4.5 23 8.4 WSW 35 46 19 25 1018.4 1018.2 0.0
17/01:31pm 16.9 8.0 -4.9 22 8.6 WSW 33 52 18 28 1018.7 1018.5 0.0
17/01:30pm 17.0 7.8 -4.3 23 8.5 WSW 35 52 19 28 1018.7 1018.5 0.0
17/01:20pm 16.5 7.6 -5.3 22 8.5 WSW 33 56 18 30 1018.8 1018.6 0.0
17/01:00pm 15.9 6.7 -4.6 24 8.0 WSW 35 52 19 28 1019.2 1019.0 0.0
17/12:30pm 15.7 5.9 -2.7 28 7.5 WSW 39 50 21 27 1019.7 1019.5 0.0
17/12:20pm 15.3 6.6 -3.6 27 7.6 WSW 33 52 18 28 1019.9 1019.7 0.0
17/12:00pm 15.7 6.6 -3.2 27 7.6 WSW 35 52 19 28 1020.4 1020.3 0.0
17/11:52am 15.7 7.7 -2.3 29 7.4 WSW 30 52 16 28 1020.3 1020.2 0.0
17/11:30am 14.9 5.9 -2.5 30 7.1 WSW 35 46 19 25 1021.0 1020.8 0.0
17/11:10am 15.3 6.9 -2.2 30 7.2 WSW 32 50 17 27 1021.4 1021.2 0.0
17/11:00am 14.9 6.4 -2.1 31 7.0 WSW 33 48 18 26 1021.5 1021.3 0.0
17/10:30am 14.6 5.7 -1.9 32 6.8 WSW 35 46 19 25 1021.6 1021.4 0.0
17/10:00am 13.9 5.0 -2.1 33 6.5 WSW 35 44 19 24 1021.8 1021.6 0.0
17/09:30am 13.8 5.3 -1.8 34 6.4 WSW 33 48 18 26 1022.0 1021.8 0.0
17/09:00am 13.2 5.8 -0.8 38 5.8 WSW 28 43 15 23 1021.8 1021.6 0.0
17/08:58am 12.7 5.6 -1.2 38 5.7 WSW 26 43 14 23 1021.7 1021.5 0.0
17/08:30am 11.0 6.2 0.1 47 4.5 W 15 24 8 13 1021.6 1021.4 0.0
17/08:00am 7.8 3.6 -0.9 54 3.4 NW 11 13 6 7 1021.6 1021.4 0.0
17/07:30am 4.3 0.5 -1.1 68 2.0 NW 9 11 5 6 1021.4 1021.2 0.0
17/07:00am 0.7 -3.6 -4.9 66 1.9 NW 9 11 5 6 1021.1 1020.9 0.0
17/06:30am 1.2 -3.4 -4.4 66 1.9 NW 11 13 6 7 1020.7 1020.6 0.0
17/06:00am 1.7 -2.3 -5.2 60 2.4 NW 7 9 4 5 1020.4 1020.3 0.0
17/05:30am 4.4 0.4 -2.2 62 2.4 WSW 9 11 5 6 1020.3 1020.2 0.0
17/05:00am 5.9 2.1 -1.0 61 2.6 WSW 9 13 5 7 1020.1 1020.0 0.0
17/04:30am 6.1 1.5 -1.1 60 2.8 WSW 13 17 7 9 1020.0 1019.9 0.0
17/04:00am 5.7 0.8 -0.8 63 2.5 WSW 15 17 8 9 1019.9 1019.7 0.0
17/03:30am 2.8 -2.2 -4.2 60 2.4 WSW 13 15 7 8 1020.1 1020.0 0.0
17/03:00am 4.5 -0.1 -3.7 55 2.9 W 11 13 6 7 1020.1 1020.0 0.0
17/02:30am 5.3 0.0 -3.2 54 3.1 WNW 15 17 8 9 1020.0 1019.9 0.0
17/02:00am 4.0 -0.9 -3.3 59 2.6 NW 13 15 7 8 1019.9 1019.7 0.0
17/01:30am 4.3 -0.3 -4.4 53 3.0 NNW 11 13 6 7 1019.9 1019.7 0.0
17/01:00am 3.9 -0.1 -5.6 50 3.1 NNW 7 9 4 5 1020.2 1020.1 0.0
17/12:30am 4.0 -0.2 -7.4 43 3.6 NNW 7 9 4 5 1020.3 1020.2 0.0
17/12:00am 4.7 -0.1 -6.5 44 3.7 NW 11 11 6 6 1020.6 1020.5 0.0
 
Date/Time
EST
Temp
°C
App
Temp
°C
Dew
Point
°C
Rel
Hum
%
Delta-T
°C
Wind Press
QNH
hPa
Press
MSL
hPa
Rain since
9am
mm
Dir  Spd
km/h
Gust
km/h
Spd
kts
Gust
kts
16/11:30pm 5.0 0.2 -6.2 44 3.7 NW 11 11 6 6 1020.7 1020.6 0.0
16/11:00pm 7.6 2.8 -2.7 48 3.8 W 13 13 7 7 1021.0 1020.8 0.0
16/10:30pm 6.9 2.0 -3.3 48 3.7 W 13 15 7 8 1020.8 1020.7 0.0
16/10:00pm 7.6 3.1 -3.3 46 4.0 W 11 13 6 7 1020.7 1020.6 0.0
16/09:30pm 7.8 3.2 -3.7 44 4.2 W 11 13 6 7 1020.6 1020.5 0.0
16/09:00pm 7.9 3.7 -4.2 42 4.4 W 9 11 5 6 1020.7 1020.6 0.0
16/08:30pm 7.9 3.2 -5.2 39 4.6 W 11 11 6 6 1020.7 1020.6 0.0
16/08:00pm 9.2 4.9 -5.1 36 5.1 WNW 9 11 5 6 1020.7 1020.6 0.0
16/07:30pm 9.1 4.5 -4.4 38 4.9 W 11 11 6 6 1020.4 1020.3 0.0
16/07:00pm 10.3 5.3 -4.1 36 5.4 WNW 13 15 7 8 1020.2 1020.1 0.0
16/06:30pm 11.3 6.6 -4.8 32 6.0 WNW 11 13 6 7 1020.1 1020.0 0.0
16/06:00pm 12.6 7.6 -4.5 30 6.5 WNW 13 15 7 8 1019.8 1019.6 0.0
16/05:30pm 14.7 9.0 -4.1 27 7.4 W 17 19 9 10 1019.4 1019.2 0.0
16/05:00pm 16.7 11.3 -4.5 23 8.4 W 15 17 8 9 1019.2 1019.0 0.0
16/04:30pm 18.9 12.6 -3.9 21 9.4 W 20 26 11 14 1018.8 1018.6 0.0
16/04:00pm 19.8 12.8 -3.1 21 9.6 W 24 32 13 17 1018.8 1018.6 0.0
16/03:30pm 20.0 13.0 -3.6 20 9.9 WNW 24 35 13 19 1018.7 1018.5 0.0
16/03:00pm 20.0 12.9 -4.3 19 10.0 W 24 39 13 21 1018.5 1018.3 0.0
16/02:30pm 20.2 13.6 -3.4 20 9.9 W 22 35 12 19 1018.5 1018.3 0.0
16/02:00pm 20.5 14.2 -5.4 17 10.5 W 19 32 10 17 1018.7 1018.5 0.0
16/01:30pm 19.8 14.0 -4.5 19 10.0 W 17 24 9 13 1019.1 1018.9 0.0
16/01:00pm 20.0 14.6 -1.7 23 9.4 WNW 17 26 9 14 1019.6 1019.4 0.0
16/12:30pm 19.3 13.9 -1.2 25 8.9 WSW 17 26 9 14 1020.2 1020.1 0.0
16/12:00pm 18.6 13.1 -1.8 25 8.7 WNW 17 26 9 14 1021.0 1020.8 0.0
16/11:30am 18.5 13.1 -1.3 26 8.6 WSW 17 24 9 13 1021.6 1021.4 0.0
16/11:00am 17.0 12.3 -1.6 28 7.9 WSW 13 19 7 10 1022.1 1021.9 0.0
16/10:30am 16.4 12.5 -1.2 30 7.5 W 9 15 5 8 1022.5 1022.4 0.0
16/10:00am 15.3 11.9 -0.9 33 6.8 W 7 13 4 7 1022.8 1022.7 0.0
16/09:30am 13.8 10.2 -1.8 34 6.4 W 7 11 4 6 1023.0 1022.9 0.0
16/09:00am 13.4 11.3 -1.0 37 5.9 CALM 0 6 0 3 1023.0 1022.9 0.0
16/08:30am 10.8 8.4 -0.3 46 4.6 NE 2 6 1 3 1022.8 1022.7 0.0
16/08:00am 6.6 3.7 -0.8 59 2.9 E 4 6 2 3 1022.6 1022.5 0.0
16/07:30am 3.2 -0.8 -1.9 69 1.8 ENE 9 11 5 6 1022.5 1022.4 0.0
16/07:00am 1.1 -1.6 -2.8 75 1.4 E 2 6 1 3 1022.3 1022.1 0.0
16/06:30am 0.9 -2.6 -3.2 74 1.5 ENE 6 9 3 5 1022.2 1022.0 0.0
16/06:00am 0.5 -4.0 -3.6 74 1.4 ENE 11 13 6 7 1022.0 1021.8 0.0
16/05:30am 0.3 -4.3 -4.1 72 1.5 ENE 11 11 6 6 1021.7 1021.5 0.0
16/05:00am 0.6 -3.6 -3.5 74 1.4 ENE 9 11 5 6 1021.7 1021.5 0.0
16/04:30am 0.3 -3.5 -3.6 75 1.3 E 7 7 4 4 1021.7 1021.5 0.0
16/04:00am 0.6 -3.6 -3.7 73 1.5 ENE 9 11 5 6 1021.9 1021.7 0.0
16/03:30am 0.4 -4.3 -4.8 68 1.7 NE 11 13 6 7 1022.1 1021.9 0.0
16/03:00am 0.1 -4.3 -6.3 62 2.0 NNE 9 13 5 7 1022.2 1022.0 0.0
16/02:30am 0.9 -3.0 -5.1 64 2.0 NE 7 7 4 4 1022.1 1021.9 0.0
16/02:00am 0.9 -3.0 -4.5 67 1.8 NNE 7 7 4 4 1022.4 1022.2 0.0
16/01:30am 1.9 -1.8 -5.0 60 2.4 NNE 6 7 3 4 1022.7 1022.6 0.0
16/01:00am 2.9 -0.8 -4.8 57 2.6 NNW 6 9 3 5 1022.7 1022.6 0.0
16/12:30am 2.2 -2.2 -5.9 55 2.7 N 9 11 5 6 1022.8 1022.7 0.0
16/12:00am 3.0 -1.0 -6.1 51 2.9 N 7 9 4 5 1022.7 1022.6 0.0
 
Date/Time
EST
Temp
°C
App
Temp
°C
Dew
Point
°C
Rel
Hum
%
Delta-T
°C
Wind Press
QNH
hPa
Press
MSL
hPa
Rain since
9am
mm
Dir  Spd
km/h
Gust
km/h
Spd
kts
Gust
kts
15/11:30pm 3.5 -0.9 -5.4 52 3.0 NNW 9 9 5 5 1022.7 1022.6 0.0

Other Formats:

Comma delimited format used in spreadsheet applications
http://www.bom.gov.au/fwo/IDQ60801/IDQ60801.94542.axf

JavaScript Object Notation format (JSON) in row-major order
http://www.bom.gov.au/fwo/IDQ60801/IDQ60801.94542.json